Time;durP1;ratioP1;P1;durP2;ratioP2;P2;SDS_P1;SDS_P2;PMS_P1;PMS_P2;Temp;Humidity;BMP_temperature;BMP_pressure;BME280_temperature;BME280_humidity;BME280_pressure;Samples;Min_cycle;Max_cycle;Signal;HPM_P1;HPM_P2
2023/12/13 00:00:41;;;;;;;2.43;0.70;;;10.40;99.90;;;;;;5086527;28;20222;-77
2023/12/13 00:03:06;;;;;;;2.30;1.43;;;10.30;99.90;;;;;;5092145;28;20180;-77
2023/12/13 00:05:32;;;;;;;1.40;0.60;;;10.30;99.90;;;;;;5113899;28;20175;-76
2023/12/13 00:07:58;;;;;;;3.00;0.70;;;10.20;99.90;;;;;;5116939;28;20177;-76
2023/12/13 00:10:23;;;;;;;2.10;0.50;;;10.20;99.90;;;;;;5115413;28;20201;-77
2023/12/13 00:12:49;;;;;;;3.53;0.80;;;10.20;99.90;;;;;;5079999;28;20232;-77
2023/12/13 00:15:15;;;;;;;3.60;0.67;;;10.10;99.90;;;;;;5105705;28;20187;-77
2023/12/13 00:17:41;;;;;;;3.30;0.70;;;10.10;99.90;;;;;;5085787;28;20277;-77
2023/12/13 00:20:07;;;;;;;2.50;0.50;;;10.10;99.90;;;;;;5097587;28;20513;-77
2023/12/13 00:22:33;;;;;;;2.15;0.60;;;10.10;99.90;;;;;;5115599;28;20210;-77
2023/12/13 00:24:59;;;;;;;2.33;0.70;;;10.10;99.90;;;;;;5096400;28;20182;-77
2023/12/13 00:27:24;;;;;;;1.50;0.70;;;10.10;99.90;;;;;;5089099;28;20195;-77
2023/12/13 00:29:50;;;;;;;2.13;0.70;;;10.10;99.90;;;;;;5112677;28;20171;-77
2023/12/13 00:32:16;;;;;;;1.60;0.70;;;10.10;99.90;;;;;;5096393;28;20249;-77
2023/12/13 00:34:42;;;;;;;1.93;0.70;;;10.20;99.90;;;;;;5087622;28;20585;-77
2023/12/13 00:37:07;;;;;;;3.07;0.93;;;10.20;99.90;;;;;;5079977;28;20255;-78
2023/12/13 00:39:33;;;;;;;1.40;0.60;;;10.20;99.90;;;;;;5089072;28;20206;-77
2023/12/13 00:41:59;;;;;;;1.73;0.63;;;10.20;99.90;;;;;;5081282;28;20198;-77
2023/12/13 00:44:24;;;;;;;1.63;0.70;;;10.20;99.90;;;;;;5096995;28;20202;-78
2023/12/13 00:46:50;;;;;;;1.60;0.80;;;10.20;99.90;;;;;;5096732;28;20668;-77
2023/12/13 00:49:16;;;;;;;2.43;1.00;;;10.20;99.90;;;;;;5054045;28;20168;-78
2023/12/13 00:51:41;;;;;;;2.13;0.80;;;10.20;99.90;;;;;;5057307;28;20310;-78
2023/12/13 00:54:07;;;;;;;3.20;0.77;;;10.20;99.90;;;;;;5096590;28;20236;-77
2023/12/13 00:56:34;;;;;;;2.77;1.00;;;10.20;99.90;;;;;;5106530;28;20215;-77
2023/12/13 00:59:00;;;;;;;1.90;0.60;;;10.20;99.90;;;;;;5113386;28;20183;-77
2023/12/13 01:01:26;;;;;;;1.53;0.70;;;10.20;99.90;;;;;;5114421;28;20197;-77
2023/12/13 01:03:52;;;;;;;1.90;0.70;;;10.30;99.90;;;;;;5114262;28;20175;-77
2023/12/13 01:06:18;;;;;;;1.70;0.77;;;10.30;99.90;;;;;;5095711;28;20604;-77
2023/12/13 01:08:43;;;;;;;1.13;0.50;;;10.30;99.90;;;;;;5085782;28;20589;-77
2023/12/13 01:11:10;;;;;;;2.20;1.27;;;10.30;99.90;;;;;;5085469;28;20232;-77
2023/12/13 01:13:36;;;;;;;1.58;0.60;;;10.40;99.90;;;;;;5081204;28;20176;-77
2023/12/13 01:16:02;;;;;;;1.85;0.60;;;10.40;99.90;;;;;;5095270;28;20249;-77
2023/12/13 01:18:28;;;;;;;2.80;0.53;;;10.40;99.90;;;;;;5077911;28;20175;-77
2023/12/13 01:20:53;;;;;;;2.47;0.70;;;10.40;99.90;;;;;;5098380;28;20629;-77
2023/12/13 01:23:19;;;;;;;1.90;0.73;;;10.40;99.90;;;;;;5113402;28;20543;-77
2023/12/13 01:25:45;;;;;;;3.27;0.67;;;10.40;99.90;;;;;;5102099;28;20209;-77
2023/12/13 01:28:11;;;;;;;2.85;0.60;;;10.50;99.90;;;;;;5094804;28;20208;-77
2023/12/13 01:30:37;;;;;;;2.73;0.77;;;10.50;99.90;;;;;;5104038;28;20784;-77
2023/12/13 01:33:02;;;;;;;1.97;0.73;;;10.50;99.90;;;;;;5094385;28;20929;-77
2023/12/13 01:35:28;;;;;;;2.37;0.80;;;10.50;99.90;;;;;;5095021;28;20634;-77
2023/12/13 01:37:54;;;;;;;1.87;0.70;;;10.60;99.90;;;;;;5085087;28;20211;-77
2023/12/13 01:40:19;;;;;;;2.23;0.70;;;10.60;99.90;;;;;;5086035;28;20580;-77
2023/12/13 01:42:45;;;;;;;4.37;0.80;;;10.70;99.90;;;;;;5111737;28;20190;-77
2023/12/13 01:45:11;;;;;;;1.73;0.60;;;10.70;99.90;;;;;;5112095;28;20247;-77
2023/12/13 01:47:38;;;;;;;1.80;0.70;;;10.70;99.90;;;;;;5093643;28;20266;-77
2023/12/13 01:50:04;;;;;;;2.40;0.70;;;10.80;99.90;;;;;;5085321;28;20170;-77
2023/12/13 01:52:30;;;;;;;4.57;0.70;;;10.80;99.90;;;;;;5076751;28;20533;-77
2023/12/13 01:54:56;;;;;;;3.17;0.85;;;10.80;99.90;;;;;;5093428;28;20179;-76
2023/12/13 01:57:23;;;;;;;2.13;0.70;;;10.80;99.90;;;;;;5111948;28;20193;-77
2023/12/13 01:59:49;;;;;;;1.77;0.70;;;10.80;99.90;;;;;;5093555;28;20584;-77
2023/12/13 02:02:15;;;;;;;2.90;0.70;;;10.90;99.90;;;;;;5076676;28;20202;-76
2023/12/13 02:04:40;;;;;;;1.87;0.80;;;10.90;99.90;;;;;;5088125;28;21214;-77
2023/12/13 02:07:06;;;;;;;2.37;0.80;;;10.90;99.90;;;;;;5075416;28;20183;-77
2023/12/13 02:09:32;;;;;;;1.67;0.70;;;10.90;99.90;;;;;;5070763;28;20237;-77
2023/12/13 02:11:58;;;;;;;1.30;0.60;;;10.90;99.90;;;;;;5093887;28;20183;-77
2023/12/13 02:14:25;;;;;;;2.67;0.70;;;10.90;99.90;;;;;;5093558;28;20171;-77
2023/12/13 02:16:53;;;;;;;1.85;0.60;;;10.90;99.90;;;;;;5093153;28;20623;-77
2023/12/13 02:19:19;;;;;;;1.63;0.80;;;10.90;99.90;;;;;;5092931;28;20167;-76
2023/12/13 02:21:44;;;;;;;1.40;0.60;;;10.80;99.90;;;;;;5092776;28;20246;-76
2023/12/13 02:24:11;;;;;;;1.50;0.60;;;10.80;99.90;;;;;;5085046;28;20581;-76
2023/12/13 02:26:41;;;;;;;4.05;0.70;;;10.80;99.90;;;;;;5076214;28;20222;-77
2023/12/13 02:29:08;;;;;;;1.35;0.77;;;10.80;99.90;;;;;;5073891;28;20182;-77
2023/12/13 02:31:35;;;;;;;4.00;0.90;;;10.80;99.90;;;;;;5055984;28;20313;-76
2023/12/13 02:34:01;;;;;;;2.42;0.70;;;10.80;99.90;;;;;;5072903;28;20175;-77
2023/12/13 02:36:27;;;;;;;2.13;0.70;;;10.80;99.90;;;;;;5014505;28;1091364;-77
2023/12/13 02:38:53;;;;;;;2.03;0.70;;;10.80;99.90;;;;;;5070761;28;20274;-76
2023/12/13 02:41:19;;;;;;;4.53;0.90;;;10.80;99.90;;;;;;5070217;28;20203;-77
2023/12/13 02:43:45;;;;;;;3.13;0.75;;;10.70;99.90;;;;;;5070021;28;20175;-76
2023/12/13 02:46:11;;;;;;;1.90;0.82;;;10.70;99.90;;;;;;5073254;28;20260;-77
2023/12/13 02:48:36;;;;;;;2.50;0.70;;;10.80;99.90;;;;;;5072833;28;20193;-77
2023/12/13 02:51:03;;;;;;;3.20;0.70;;;10.80;99.90;;;;;;5073164;28;20534;-80
2023/12/13 02:53:29;;;;;;;1.80;0.68;;;10.80;99.90;;;;;;5053439;28;20179;-81
2023/12/13 02:55:55;;;;;;;2.17;0.70;;;10.80;99.90;;;;;;5054468;28;20203;-81
2023/12/13 02:58:21;;;;;;;2.47;0.70;;;10.80;99.90;;;;;;5078923;28;20176;-80
2023/12/13 03:00:48;;;;;;;1.90;0.70;;;10.90;99.90;;;;;;5089024;28;20207;-79
2023/12/13 03:03:13;;;;;;;1.90;0.70;;;10.90;99.90;;;;;;5081237;28;20244;-80
2023/12/13 03:05:39;;;;;;;2.70;0.90;;;10.90;99.90;;;;;;5082424;28;20191;-79
2023/12/13 03:08:05;;;;;;;1.50;0.80;;;10.90;99.90;;;;;;5091176;28;20160;-79
2023/12/13 03:10:30;;;;;;;2.77;0.80;;;10.90;99.90;;;;;;5111691;28;20164;-79
2023/12/13 03:12:56;;;;;;;2.33;0.90;;;10.90;99.90;;;;;;5111378;28;20202;-79
2023/12/13 03:15:25;;;;;;;1.85;0.90;;;10.90;99.90;;;;;;5101272;28;20542;-79
2023/12/13 03:17:51;;;;;;;3.40;1.10;;;10.90;99.90;;;;;;5111349;28;20203;-80
2023/12/13 03:20:16;;;;;;;2.73;1.00;;;10.90;99.90;;;;;;5084361;28;20170;-80
2023/12/13 03:22:42;;;;;;;3.70;1.97;;;10.90;99.90;;;;;;5111388;28;20227;-80
2023/12/13 03:25:08;;;;;;;2.37;1.00;;;10.90;99.90;;;;;;5059494;28;20170;-80
2023/12/13 03:27:34;;;;;;;2.23;1.40;;;10.90;99.90;;;;;;5093160;28;20670;-80
2023/12/13 03:30:00;;;;;;;3.80;1.10;;;10.80;99.90;;;;;;5092481;28;20172;-80
2023/12/13 03:32:25;;;;;;;2.37;1.20;;;10.80;99.90;;;;;;5084738;28;20564;-80
2023/12/13 03:34:51;;;;;;;4.23;1.97;;;10.70;99.90;;;;;;5093795;28;20178;-80
2023/12/13 03:37:16;;;;;;;3.67;1.40;;;10.70;99.90;;;;;;5063682;28;20214;-80
2023/12/13 03:39:42;;;;;;;3.30;1.33;;;10.60;99.90;;;;;;5079769;28;20171;-80
2023/12/13 03:42:08;;;;;;;4.57;2.07;;;10.60;99.90;;;;;;5094495;28;20286;-80
2023/12/13 03:44:33;;;;;;;5.63;1.30;;;10.60;99.90;;;;;;5083623;28;20902;-80
2023/12/13 03:46:59;;;;;;;3.47;1.43;;;10.60;99.90;;;;;;5080095;28;20615;-80
2023/12/13 03:49:25;;;;;;;2.70;1.10;;;10.60;99.90;;;;;;5096589;28;20187;-80
2023/12/13 03:51:50;;;;;;;2.33;1.10;;;10.50;99.90;;;;;;5124944;28;20181;-80
2023/12/13 03:54:16;;;;;;;3.57;1.50;;;10.50;99.90;;;;;;5132090;28;20235;-80
2023/12/13 03:56:42;;;;;;;4.73;0.97;;;10.50;99.90;;;;;;5124327;28;20191;-80
2023/12/13 03:59:08;;;;;;;3.40;1.10;;;10.50;99.90;;;;;;5109148;28;20304;-80
2023/12/13 04:01:34;;;;;;;2.08;1.00;;;10.50;99.90;;;;;;5107389;28;20719;-80
2023/12/13 04:04:00;;;;;;;5.50;1.20;;;10.50;99.90;;;;;;5104266;28;20179;-80
2023/12/13 04:06:26;;;;;;;4.13;1.20;;;10.50;99.90;;;;;;5109390;28;20249;-80
2023/12/13 04:08:51;;;;;;;6.80;1.13;;;10.50;99.90;;;;;;5105526;28;20200;-80
2023/12/13 04:11:17;;;;;;;3.87;0.80;;;10.50;99.90;;;;;;5107123;28;20179;-80
2023/12/13 04:13:43;;;;;;;3.83;1.10;;;10.50;99.90;;;;;;5125561;28;20782;-80
2023/12/13 04:16:09;;;;;;;2.58;0.90;;;10.50;99.90;;;;;;5094256;28;20199;-80
2023/12/13 04:18:35;;;;;;;2.33;1.10;;;10.50;99.90;;;;;;5095305;28;20174;-80
2023/12/13 04:21:01;;;;;;;3.20;0.98;;;10.50;99.90;;;;;;5096715;28;20629;-80
2023/12/13 04:23:27;;;;;;;4.50;1.00;;;10.50;99.90;;;;;;5103906;28;20167;-81
2023/12/13 04:25:53;;;;;;;2.93;1.13;;;10.50;99.90;;;;;;5111342;28;20608;-80
2023/12/13 04:28:18;;;;;;;3.73;1.20;;;10.50;99.90;;;;;;5114419;28;20170;-80
2023/12/13 04:30:44;;;;;;;5.50;1.10;;;10.50;99.90;;;;;;5113407;28;20201;-80
2023/12/13 04:33:10;;;;;;;3.57;0.87;;;10.50;99.90;;;;;;5109706;28;20210;-80
2023/12/13 04:35:35;;;;;;;4.57;1.30;;;10.50;99.90;;;;;;5119617;28;20175;-80
2023/12/13 04:38:01;;;;;;;3.23;1.00;;;10.50;99.90;;;;;;5104689;28;20195;-79
2023/12/13 04:40:28;;;;;;;8.20;1.17;;;10.50;99.90;;;;;;5102477;28;20189;-79
2023/12/13 04:42:54;;;;;;;2.90;1.20;;;10.50;99.90;;;;;;5124977;28;20228;-79
2023/12/13 04:45:20;;;;;;;2.73;1.10;;;10.50;99.90;;;;;;5120963;28;20175;-80
2023/12/13 04:47:45;;;;;;;3.80;1.30;;;10.40;99.90;;;;;;5095810;28;20229;-80
2023/12/13 04:50:11;;;;;;;3.03;1.43;;;10.40;99.90;;;;;;5092804;28;20182;-80
2023/12/13 04:52:36;;;;;;;3.63;0.90;;;10.40;99.90;;;;;;5090573;28;20185;-80
2023/12/13 04:55:03;;;;;;;2.80;0.90;;;10.40;99.90;;;;;;5094562;28;20216;-79
2023/12/13 04:57:29;;;;;;;4.15;1.10;;;10.40;99.90;;;;;;5091478;28;20203;-79
2023/12/13 04:59:55;;;;;;;3.10;1.00;;;10.30;99.90;;;;;;5095440;28;20179;-80
2023/12/13 05:02:20;;;;;;;5.87;1.20;;;10.30;99.90;;;;;;5080695;23;20243;-76
2023/12/13 05:04:47;;;;;;;5.17;1.43;;;10.20;99.90;;;;;;5068875;28;20180;-76
2023/12/13 05:07:12;;;;;;;2.95;0.98;;;10.20;99.90;;;;;;5063706;28;20177;-75
2023/12/13 05:09:38;;;;;;;4.23;1.47;;;10.20;99.90;;;;;;5065727;28;20188;-75
2023/12/13 05:12:05;;;;;;;2.55;0.90;;;10.20;99.90;;;;;;5068435;28;20242;-76
2023/12/13 05:14:31;;;;;;;2.88;1.08;;;10.20;99.90;;;;;;5062633;28;20179;-77
2023/12/13 05:16:56;;;;;;;3.13;1.60;;;10.10;99.90;;;;;;5070803;28;20176;-76
2023/12/13 05:19:22;;;;;;;3.33;1.30;;;10.10;99.90;;;;;;5072644;28;20176;-76
2023/12/13 05:21:48;;;;;;;4.60;2.97;;;10.10;99.90;;;;;;5065002;28;20208;-76
2023/12/13 05:24:13;;;;;;;4.53;1.23;;;10.20;99.90;;;;;;5051456;28;20686;-75
2023/12/13 05:26:39;;;;;;;4.10;0.90;;;10.20;99.90;;;;;;5061285;28;20168;-75
2023/12/13 05:29:05;;;;;;;4.50;1.00;;;10.20;99.90;;;;;;5067868;28;20181;-75
2023/12/13 05:31:30;;;;;;;4.13;1.20;;;10.20;99.90;;;;;;5071384;28;20196;-75
2023/12/13 05:33:56;;;;;;;4.83;1.20;;;10.10;99.90;;;;;;5055011;28;20180;-75
2023/12/13 05:36:22;;;;;;;5.10;0.90;;;10.10;99.90;;;;;;5047714;28;20185;-76
2023/12/13 05:38:48;;;;;;;5.40;1.73;;;10.20;99.90;;;;;;5062584;28;20184;-76
2023/12/13 05:41:13;;;;;;;6.20;1.10;;;10.10;99.90;;;;;;5069443;28;21195;-76
2023/12/13 05:43:39;;;;;;;6.07;0.90;;;10.20;99.90;;;;;;5072480;28;20645;-77
2023/12/13 05:46:06;;;;;;;5.80;1.30;;;10.20;99.90;;;;;;5070344;28;20176;-76
2023/12/13 05:48:32;;;;;;;2.45;1.00;;;10.20;99.90;;;;;;5052449;28;21018;-77
2023/12/13 05:50:58;;;;;;;2.07;0.80;;;10.20;99.90;;;;;;5040008;28;20272;-76
2023/12/13 05:53:24;;;;;;;2.30;1.00;;;10.20;99.90;;;;;;5070748;28;20676;-77
2023/12/13 05:55:50;;;;;;;5.53;1.10;;;10.20;99.90;;;;;;5068324;28;20181;-76
2023/12/13 05:58:15;;;;;;;6.97;0.90;;;10.30;99.90;;;;;;5071861;28;20671;-77
2023/12/13 06:00:41;;;;;;;2.23;1.00;;;10.30;99.90;;;;;;5070368;28;20212;-76
2023/12/13 06:03:07;;;;;;;3.13;1.10;;;10.30;99.90;;;;;;5070570;28;20291;-76
2023/12/13 06:05:33;;;;;;;3.33;0.88;;;10.30;99.90;;;;;;5064030;28;21015;-76
2023/12/13 06:07:59;;;;;;;3.00;1.10;;;10.30;99.90;;;;;;5067556;28;20204;-76
2023/12/13 06:10:25;;;;;;;4.83;1.47;;;10.30;99.90;;;;;;5071726;28;20169;-76
2023/12/13 06:12:52;;;;;;;4.43;1.60;;;10.30;99.90;;;;;;5062210;28;20513;-76
2023/12/13 06:15:19;;;;;;;2.50;1.00;;;10.30;99.90;;;;;;5048160;28;20191;-77
2023/12/13 06:17:44;;;;;;;2.15;0.90;;;10.30;99.90;;;;;;5070778;28;20202;-77
2023/12/13 06:20:13;;;;;;;3.73;0.93;;;10.40;99.90;;;;;;5062078;28;20173;-77
2023/12/13 06:22:39;;;;;;;2.97;0.90;;;10.40;99.90;;;;;;5073296;28;20303;-76
2023/12/13 06:25:05;;;;;;;4.03;1.37;;;10.30;99.90;;;;;;5051409;28;20268;-77
2023/12/13 06:27:31;;;;;;;3.53;1.30;;;10.30;99.90;;;;;;5059080;28;20173;-76
2023/12/13 06:29:56;;;;;;;4.37;1.70;;;10.40;99.90;;;;;;5058732;28;20173;-77
2023/12/13 06:32:22;;;;;;;5.93;1.00;;;10.30;99.90;;;;;;5054372;28;21199;-77
2023/12/13 06:34:48;;;;;;;3.77;1.00;;;10.30;99.90;;;;;;5057779;28;20177;-76
2023/12/13 06:37:13;;;;;;;3.63;0.90;;;10.30;99.90;;;;;;5068490;28;20180;-76
2023/12/13 06:39:39;;;;;;;2.57;1.17;;;10.20;99.90;;;;;;5063277;28;20658;-76
2023/12/13 06:42:08;;;;;;;4.00;0.80;;;10.20;99.90;;;;;;5055634;28;21212;-78
2023/12/13 06:44:38;;;;;;;4.30;1.00;;;10.20;99.90;;;;;;5078930;28;20153;-78
2023/12/13 06:47:05;;;;;;;3.08;1.10;;;10.10;99.90;;;;;;5069885;28;20177;-77
2023/12/13 06:49:34;;;;;;;3.65;1.02;;;10.10;99.90;;;;;;5055903;28;20161;-78
2023/12/13 06:52:01;;;;;;;5.65;0.80;;;10.10;99.90;;;;;;5068907;28;20205;-78
2023/12/13 06:54:28;;;;;;;3.25;0.95;;;10.10;99.90;;;;;;5066692;28;20220;-79
2023/12/13 06:56:54;;;;;;;5.57;1.20;;;10.10;99.90;;;;;;5050276;28;20176;-80
2023/12/13 06:59:20;;;;;;;1.88;0.85;;;10.10;99.90;;;;;;5044089;28;20179;-78
2023/12/13 07:01:46;;;;;;;2.70;0.90;;;10.20;99.90;;;;;;5068690;28;20616;-77
2023/12/13 07:04:11;;;;;;;4.27;1.10;;;10.10;99.90;;;;;;5066995;28;20954;-77
2023/12/13 07:06:37;;;;;;;3.23;1.33;;;10.10;99.90;;;;;;5028527;28;20269;-77
2023/12/13 07:09:03;;;;;;;2.97;1.03;;;10.10;99.90;;;;;;5043493;28;20176;-77
2023/12/13 07:11:29;;;;;;;3.25;0.95;;;10.20;99.90;;;;;;5049592;28;20207;-77
2023/12/13 07:13:55;;;;;;;3.50;1.10;;;10.10;99.90;;;;;;5070678;28;20587;-77
2023/12/13 07:16:21;;;;;;;5.17;1.10;;;10.10;99.90;;;;;;5069302;28;20683;-77
2023/12/13 07:18:46;;;;;;;6.20;1.47;;;10.20;99.90;;;;;;5068255;28;20180;-77
2023/12/13 07:21:12;;;;;;;7.90;1.13;;;10.20;99.90;;;;;;5061208;28;20207;-77
2023/12/13 07:23:39;;;;;;;2.80;1.00;;;10.20;99.90;;;;;;5065663;28;20876;-78
2023/12/13 07:26:06;;;;;;;4.60;1.02;;;10.20;99.90;;;;;;5068498;28;20188;-78
2023/12/13 07:28:32;;;;;;;6.57;1.73;;;10.20;99.90;;;;;;5069872;28;20175;-77
2023/12/13 07:31:01;;;;;;;4.38;1.55;;;10.20;99.90;;;;;;5054456;28;20181;-77
2023/12/13 07:33:27;;;;;;;6.00;1.20;;;10.30;99.90;;;;;;5061723;28;20192;-77
2023/12/13 07:35:53;;;;;;;4.87;1.37;;;10.20;99.90;;;;;;5070528;28;20538;-77
2023/12/13 07:38:18;;;;;;;3.10;1.33;;;10.20;99.90;;;;;;5070439;28;20582;-77
2023/12/13 07:40:46;;;;;;;3.83;1.47;;;10.30;99.90;;;;;;5069989;28;20196;-77
2023/12/13 07:43:12;;;;;;;5.15;1.65;;;10.20;99.90;;;;;;5062492;28;20204;-77
2023/12/13 07:45:38;;;;;;;5.50;1.23;;;10.20;99.90;;;;;;5070488;28;20165;-77
2023/12/13 07:48:04;;;;;;;4.15;1.25;;;10.20;99.90;;;;;;5072219;28;20172;-77
2023/12/13 07:50:30;;;;;;;8.70;1.40;;;10.20;99.90;;;;;;5036215;28;20176;-77
2023/12/13 07:52:56;;;;;;;3.23;1.37;;;10.20;99.90;;;;;;5035731;28;20203;-77
2023/12/13 07:55:23;;;;;;;3.27;1.17;;;10.30;99.90;;;;;;5059159;28;20534;-77
2023/12/13 07:57:52;;;;;;;5.47;1.38;;;10.20;99.90;;;;;;5065767;28;20587;-77
2023/12/13 08:00:18;;;;;;;3.63;1.42;;;10.30;99.90;;;;;;5060996;28;20587;-78
2023/12/13 08:02:44;;;;;;;5.70;1.50;;;10.30;99.90;;;;;;5060538;28;20269;-78
2023/12/13 08:05:10;;;;;;;3.00;1.10;;;10.30;99.90;;;;;;5068808;28;20169;-78
2023/12/13 08:07:35;;;;;;;5.87;1.40;;;10.40;99.90;;;;;;5068996;28;20177;-77
2023/12/13 08:10:04;;;;;;;3.80;1.30;;;10.40;99.90;;;;;;5064516;28;20614;-78
2023/12/13 08:12:34;;;;;;;3.03;1.38;;;10.40;99.90;;;;;;5069990;28;20606;-78
2023/12/13 08:15:00;;;;;;;5.35;1.10;;;10.40;99.90;;;;;;5064916;28;20596;-77
2023/12/13 08:17:27;;;;;;;5.57;1.88;;;10.40;99.90;;;;;;5078458;28;20540;-78
2023/12/13 08:19:54;;;;;;;4.65;1.33;;;10.50;99.90;;;;;;5056662;28;20180;-77
2023/12/13 08:22:19;;;;;;;2.35;1.05;;;10.50;99.90;;;;;;5067894;28;20700;-78
2023/12/13 08:24:45;;;;;;;4.33;1.10;;;10.50;99.90;;;;;;5070988;28;20176;-78
2023/12/13 08:27:11;;;;;;;3.60;1.57;;;10.50;99.90;;;;;;5072447;28;20546;-78
2023/12/13 08:29:36;;;;;;;5.80;1.20;;;10.50;99.90;;;;;;5051020;28;20173;-78
2023/12/13 08:32:02;;;;;;;5.67;1.10;;;10.50;99.90;;;;;;5069383;28;20264;-78
2023/12/13 08:34:28;;;;;;;6.85;1.20;;;10.50;99.90;;;;;;5073561;28;20560;-78
2023/12/13 08:36:54;;;;;;;3.40;1.40;;;10.50;99.90;;;;;;5066785;28;20176;-78
2023/12/13 08:39:21;;;;;;;5.90;1.58;;;10.50;99.90;;;;;;5053836;28;20188;-78
2023/12/13 08:41:47;;;;;;;5.15;1.65;;;10.50;99.90;;;;;;5052217;28;20205;-78
2023/12/13 08:44:13;;;;;;;6.53;1.30;;;10.50;99.90;;;;;;5067704;28;20183;-78
2023/12/13 08:46:39;;;;;;;6.47;1.63;;;10.50;99.90;;;;;;5072257;28;20585;-78
2023/12/13 08:49:05;;;;;;;6.03;1.20;;;10.60;99.90;;;;;;5071841;28;20164;-78
2023/12/13 08:51:30;;;;;;;4.27;1.40;;;10.50;99.90;;;;;;5055455;28;21224;-78
2023/12/13 08:53:56;;;;;;;15.17;1.60;;;10.60;99.90;;;;;;5058061;28;20172;-78
2023/12/13 08:56:22;;;;;;;4.40;2.33;;;10.60;99.90;;;;;;5055320;28;20181;-78
2023/12/13 08:58:47;;;;;;;2.40;1.00;;;10.60;99.90;;;;;;5073169;28;20226;-78
2023/12/13 09:01:13;;;;;;;3.70;1.37;;;10.70;99.90;;;;;;5075517;28;20208;-78
2023/12/13 09:03:40;;;;;;;5.68;1.52;;;10.70;99.90;;;;;;5049088;28;20524;-77
2023/12/13 09:06:06;;;;;;;5.80;1.63;;;10.70;99.90;;;;;;5066223;28;20208;-77
2023/12/13 09:08:33;;;;;;;5.53;1.90;;;10.70;99.90;;;;;;5073092;28;20610;-77
2023/12/13 09:10:59;;;;;;;4.20;1.98;;;10.80;99.90;;;;;;5072809;28;20579;-77
2023/12/13 09:13:25;;;;;;;4.93;1.33;;;10.80;99.90;;;;;;5073068;28;20471;-77
2023/12/13 09:15:51;;;;;;;4.43;1.60;;;10.80;99.90;;;;;;5067443;28;20599;-77
2023/12/13 09:18:17;;;;;;;4.20;1.40;;;10.90;99.90;;;;;;5062522;28;20187;-77
2023/12/13 09:20:43;;;;;;;5.80;1.50;;;10.90;99.90;;;;;;5066330;28;20266;-77
2023/12/13 09:23:21;;;;;;;5.00;1.70;;;11.00;99.90;;;;;;5067963;28;20204;-77
2023/12/13 09:25:46;;;;;;;6.22;1.40;;;11.00;99.90;;;;;;5071629;28;20579;-77
2023/12/13 09:28:12;;;;;;;6.23;1.50;;;11.00;99.90;;;;;;5064379;28;20203;-77
2023/12/13 09:30:38;;;;;;;3.50;1.63;;;11.00;99.90;;;;;;5072539;28;20573;-77
2023/12/13 09:33:04;;;;;;;7.03;2.17;;;11.10;99.90;;;;;;5062042;28;20196;-77
2023/12/13 09:35:29;;;;;;;5.87;1.90;;;11.10;99.90;;;;;;5071271;28;20660;-77
2023/12/13 09:37:55;;;;;;;3.80;1.70;;;11.10;99.90;;;;;;5071345;28;20184;-77
2023/12/13 09:40:21;;;;;;;8.77;1.80;;;11.10;99.90;;;;;;5066325;28;20226;-77
2023/12/13 09:42:47;;;;;;;6.17;1.60;;;11.10;99.90;;;;;;5071009;28;20577;-77
2023/12/13 09:45:21;;;;;;;2.97;1.50;;;11.10;99.90;;;;;;5071102;28;20172;-77
2023/12/13 09:47:49;;;;;;;5.70;1.58;;;11.10;99.90;;;;;;5072540;28;20662;-77
2023/12/13 09:50:15;;;;;;;5.63;1.95;;;11.10;99.90;;;;;;5045608;28;20184;-77
2023/12/13 09:52:42;;;;;;;3.00;1.38;;;11.20;99.90;;;;;;5047180;28;20196;-77
2023/12/13 09:55:09;;;;;;;4.68;1.35;;;11.20;99.90;;;;;;5071080;28;20542;-77
2023/12/13 09:57:41;;;;;;;6.95;1.63;;;11.20;99.90;;;;;;5056212;28;20172;-77
2023/12/13 10:00:07;;;;;;;5.57;1.70;;;11.30;99.90;;;;;;5070596;28;20667;-77
2023/12/13 10:02:36;;;;;;;11.30;1.80;;;11.40;99.90;;;;;;5052015;28;20208;-78
2023/12/13 10:05:04;;;;;;;4.13;1.70;;;11.50;99.90;;;;;;5067746;28;20578;-78
2023/12/13 10:07:29;;;;;;;2.30;1.20;;;11.60;99.90;;;;;;5062450;28;20179;-78
2023/12/13 10:09:56;;;;;;;4.60;1.30;;;11.70;99.90;;;;;;5066285;28;20176;-76
2023/12/13 10:12:26;;;;;;;6.97;4.22;;;11.90;99.90;;;;;;5070649;28;20569;-76
2023/12/13 10:14:51;;;;;;;4.00;2.07;;;12.10;99.90;;;;;;5062357;28;20180;-77
2023/12/13 10:17:21;;;;;;;4.30;2.27;;;12.20;99.90;;;;;;5066272;28;20682;-77
2023/12/13 10:19:47;;;;;;;5.27;1.33;;;12.30;99.90;;;;;;5071413;28;20168;-75
2023/12/13 10:22:15;;;;;;;3.60;1.60;;;12.40;99.90;;;;;;5061986;28;20769;-76
2023/12/13 10:24:41;;;;;;;5.53;1.10;;;12.60;99.90;;;;;;5033215;28;20619;-76
2023/12/13 10:27:08;;;;;;;3.60;1.40;;;12.70;99.90;;;;;;5059887;28;20587;-76
2023/12/13 10:29:33;;;;;;;4.10;1.60;;;12.80;99.90;;;;;;5052836;28;20571;-76
2023/12/13 10:31:59;;;;;;;3.37;1.40;;;12.90;99.90;;;;;;5070353;28;20625;-76
2023/12/13 10:34:25;;;;;;;4.30;1.70;;;13.10;99.90;;;;;;5053537;28;20208;-76
2023/12/13 10:36:53;;;;;;;7.70;1.57;;;13.20;99.90;;;;;;5070058;28;20597;-76
2023/12/13 10:39:22;;;;;;;6.03;1.53;;;13.30;99.90;;;;;;5069938;28;20586;-77
2023/12/13 10:41:50;;;;;;;2.93;1.20;;;13.50;99.90;;;;;;5050680;28;20682;-77
2023/12/13 10:44:20;;;;;;;4.77;1.30;;;13.60;99.90;;;;;;5047435;28;20585;-76
2023/12/13 10:46:48;;;;;;;6.00;1.10;;;13.70;99.90;;;;;;5050378;28;20578;-77
2023/12/13 10:49:16;;;;;;;6.17;1.40;;;13.80;99.90;;;;;;5051574;28;20590;-78
2023/12/13 10:51:44;;;;;;;2.20;1.00;;;13.90;99.90;;;;;;5051331;28;20992;-76
2023/12/13 10:54:12;;;;;;;4.30;1.30;;;14.00;99.90;;;;;;5045371;28;20653;-77
2023/12/13 10:56:39;;;;;;;3.57;1.10;;;14.10;99.90;;;;;;5056845;28;20578;-76
2023/12/13 10:59:06;;;;;;;5.77;1.90;;;14.20;99.90;;;;;;5056237;28;20576;-77
2023/12/13 11:01:32;;;;;;;3.13;1.30;;;14.30;99.90;;;;;;5061100;28;20654;-77
2023/12/13 11:04:06;;;;;;;4.93;1.30;;;14.40;99.90;;;;;;5058148;28;20725;-77
2023/12/13 11:06:32;;;;;;;5.40;1.20;;;14.40;99.90;;;;;;5050434;28;20581;-78
2023/12/13 11:09:08;;;;;;;3.87;1.27;;;14.50;99.90;;;;;;5051131;28;20578;-78
2023/12/13 11:11:34;;;;;;;2.60;1.17;;;14.50;99.90;;;;;;5049704;28;20290;-77
2023/12/13 11:14:01;;;;;;;5.93;1.67;;;14.60;99.90;;;;;;5049775;28;20619;-78
2023/12/13 11:16:27;;;;;;;2.83;1.40;;;14.60;99.90;;;;;;5050918;28;20517;-77
2023/12/13 11:19:02;;;;;;;3.20;1.37;;;14.70;99.90;;;;;;5049432;28;20588;-78
2023/12/13 11:21:31;;;;;;;4.23;1.67;;;14.70;99.90;;;;;;5050799;28;20646;-78
2023/12/13 11:24:08;;;;;;;4.67;1.90;;;14.70;99.90;;;;;;5050853;28;20669;-77
2023/12/13 11:26:39;;;;;;;5.00;1.10;;;14.70;99.90;;;;;;5049480;28;20933;-77
2023/12/13 11:29:13;;;;;;;3.93;1.33;;;14.70;99.90;;;;;;5049036;28;20964;-77
2023/12/13 11:31:49;;;;;;;3.23;1.40;;;14.70;99.90;;;;;;5035068;28;20622;-78
2023/12/13 11:34:15;;;;;;;3.70;1.20;;;14.70;99.90;;;;;;5048929;28;20798;-78
2023/12/13 11:36:42;;;;;;;5.37;1.67;;;14.70;99.90;;;;;;5050690;28;20983;-78
2023/12/13 11:39:11;;;;;;;6.03;1.80;;;14.70;99.90;;;;;;5049934;28;20951;-75
2023/12/13 11:41:37;;;;;;;7.60;1.90;;;14.80;99.90;;;;;;5040733;28;20682;-75
2023/12/13 11:44:05;;;;;;;4.57;1.50;;;14.90;99.90;;;;;;5048750;28;20612;-75
2023/12/13 11:46:31;;;;;;;6.70;1.30;;;15.00;99.90;;;;;;5049453;28;20199;-75
2023/12/13 11:48:57;;;;;;;5.40;1.17;;;15.10;99.90;;;;;;5049591;28;20576;-74
2023/12/13 11:51:22;;;;;;;4.40;1.20;;;15.10;99.90;;;;;;5050224;28;20583;-75
2023/12/13 11:53:49;;;;;;;4.53;1.37;;;15.20;99.90;;;;;;5048902;28;20173;-74
2023/12/13 11:56:18;;;;;;;7.50;1.00;;;15.20;99.90;;;;;;5050431;28;20509;-74
2023/12/13 11:58:43;;;;;;;3.33;1.10;;;15.30;99.90;;;;;;5052411;28;21369;-74
2023/12/13 12:01:12;;;;;;;3.40;1.03;;;15.30;99.90;;;;;;5049203;28;20675;-75
2023/12/13 12:03:37;;;;;;;9.27;1.30;;;15.30;99.90;;;;;;5052536;28;20235;-74
2023/12/13 12:06:16;;;;;;;5.20;1.10;;;15.40;99.90;;;;;;5052611;28;20927;-74
2023/12/13 12:08:42;;;;;;;3.03;1.57;;;15.40;99.90;;;;;;5045452;28;20231;-74
2023/12/13 12:11:08;;;;;;;4.83;1.47;;;15.50;99.90;;;;;;5036266;28;20587;-75
2023/12/13 12:13:33;;;;;;;6.10;1.67;;;15.50;99.90;;;;;;5052714;28;20216;-74
2023/12/13 12:16:00;;;;;;;4.07;1.30;;;15.60;99.90;;;;;;5055873;28;20594;-75
2023/12/13 12:18:26;;;;;;;4.30;1.17;;;15.60;99.90;;;;;;5050572;28;20289;-75
2023/12/13 12:20:52;;;;;;;3.10;0.90;;;15.70;99.90;;;;;;5048600;28;20658;-75
2023/12/13 12:23:18;;;;;;;4.97;1.43;;;15.70;99.90;;;;;;5049065;28;20643;-75
2023/12/13 12:25:44;;;;;;;4.27;1.30;;;15.70;99.90;;;;;;5052382;28;20718;-75
2023/12/13 12:28:11;;;;;;;3.90;1.00;;;15.80;99.90;;;;;;5052293;28;20618;-75
2023/12/13 12:30:39;;;;;;;3.57;1.10;;;15.80;99.90;;;;;;5051019;28;20262;-75
2023/12/13 12:33:05;;;;;;;2.90;0.90;;;15.70;99.90;;;;;;5052399;28;21203;-75
2023/12/13 12:35:34;;;;;;;3.50;1.07;;;15.80;99.90;;;;;;5053960;28;20590;-75
2023/12/13 12:38:00;;;;;;;5.57;0.90;;;15.70;99.90;;;;;;5059316;28;20189;-75
2023/12/13 12:40:27;;;;;;;7.30;1.20;;;15.70;99.90;;;;;;5052825;28;20658;-76